sensor_id;sensor_type;location;lat;lon;timestamp;P1;durP1;ratioP1;P2;durP2;ratioP2
173;SDS011;75;48.784;9.364;2022-07-09T00:02:03;12.47;;;7.50;;
173;SDS011;75;48.784;9.364;2022-07-09T00:04:30;9.60;;;6.60;;
173;SDS011;75;48.784;9.364;2022-07-09T00:06:56;10.73;;;7.30;;
173;SDS011;75;48.784;9.364;2022-07-09T00:09:23;7.80;;;5.80;;
173;SDS011;75;48.784;9.364;2022-07-09T00:11:49;11.00;;;7.47;;
173;SDS011;75;48.784;9.364;2022-07-09T00:14:17;12.17;;;7.67;;
173;SDS011;75;48.784;9.364;2022-07-09T00:16:43;10.40;;;7.10;;
173;SDS011;75;48.784;9.364;2022-07-09T00:19:09;10.30;;;6.80;;
173;SDS011;75;48.784;9.364;2022-07-09T00:21:35;9.83;;;6.40;;
173;SDS011;75;48.784;9.364;2022-07-09T00:24:01;12.20;;;6.80;;
173;SDS011;75;48.784;9.364;2022-07-09T00:26:27;11.00;;;6.43;;
173;SDS011;75;48.784;9.364;2022-07-09T00:28:53;10.90;;;6.23;;
173;SDS011;75;48.784;9.364;2022-07-09T00:31:19;11.93;;;6.40;;
173;SDS011;75;48.784;9.364;2022-07-09T00:33:45;11.63;;;5.90;;
173;SDS011;75;48.784;9.364;2022-07-09T00:36:11;12.40;;;6.93;;
173;SDS011;75;48.784;9.364;2022-07-09T00:38:38;11.00;;;6.53;;
173;SDS011;75;48.784;9.364;2022-07-09T00:41:04;8.13;;;6.30;;
173;SDS011;75;48.784;9.364;2022-07-09T00:43:30;8.83;;;5.50;;
173;SDS011;75;48.784;9.364;2022-07-09T00:45:56;11.47;;;5.63;;
173;SDS011;75;48.784;9.364;2022-07-09T00:48:22;10.30;;;5.80;;
173;SDS011;75;48.784;9.364;2022-07-09T00:50:48;10.60;;;5.60;;
173;SDS011;75;48.784;9.364;2022-07-09T00:53:15;6.90;;;5.43;;
173;SDS011;75;48.784;9.364;2022-07-09T00:55:41;9.37;;;5.17;;
173;SDS011;75;48.784;9.364;2022-07-09T00:58:10;9.30;;;5.70;;
173;SDS011;75;48.784;9.364;2022-07-09T01:00:36;10.50;;;5.80;;
173;SDS011;75;48.784;9.364;2022-07-09T01:03:02;9.60;;;5.73;;
173;SDS011;75;48.784;9.364;2022-07-09T01:05:28;9.07;;;6.10;;
173;SDS011;75;48.784;9.364;2022-07-09T01:08:04;9.27;;;5.40;;
173;SDS011;75;48.784;9.364;2022-07-09T01:10:30;9.27;;;5.37;;
173;SDS011;75;48.784;9.364;2022-07-09T01:12:56;7.93;;;5.57;;
173;SDS011;75;48.784;9.364;2022-07-09T01:15:22;13.93;;;5.60;;
173;SDS011;75;48.784;9.364;2022-07-09T01:17:48;10.03;;;5.80;;
173;SDS011;75;48.784;9.364;2022-07-09T01:20:23;10.80;;;5.60;;
173;SDS011;75;48.784;9.364;2022-07-09T01:22:49;14.20;;;6.23;;
173;SDS011;75;48.784;9.364;2022-07-09T01:25:16;11.40;;;5.80;;
173;SDS011;75;48.784;9.364;2022-07-09T01:27:42;8.40;;;6.10;;
173;SDS011;75;48.784;9.364;2022-07-09T01:30:08;10.23;;;6.43;;
173;SDS011;75;48.784;9.364;2022-07-09T01:32:35;9.37;;;5.90;;
173;SDS011;75;48.784;9.364;2022-07-09T01:35:01;9.33;;;6.13;;
173;SDS011;75;48.784;9.364;2022-07-09T01:37:27;9.03;;;5.97;;
173;SDS011;75;48.784;9.364;2022-07-09T01:39:53;8.27;;;5.93;;
173;SDS011;75;48.784;9.364;2022-07-09T01:42:19;8.30;;;5.33;;
173;SDS011;75;48.784;9.364;2022-07-09T01:44:45;8.23;;;6.30;;
173;SDS011;75;48.784;9.364;2022-07-09T01:47:11;7.27;;;5.60;;
173;SDS011;75;48.784;9.364;2022-07-09T01:49:40;8.73;;;6.10;;
173;SDS011;75;48.784;9.364;2022-07-09T01:52:06;8.93;;;6.13;;
173;SDS011;75;48.784;9.364;2022-07-09T01:54:33;9.40;;;6.33;;
173;SDS011;75;48.784;9.364;2022-07-09T01:56:59;9.83;;;6.47;;
173;SDS011;75;48.784;9.364;2022-07-09T01:59:25;9.83;;;5.97;;
173;SDS011;75;48.784;9.364;2022-07-09T02:01:51;8.43;;;6.17;;
173;SDS011;75;48.784;9.364;2022-07-09T02:04:17;7.63;;;5.80;;
173;SDS011;75;48.784;9.364;2022-07-09T02:06:43;9.17;;;6.10;;
173;SDS011;75;48.784;9.364;2022-07-09T02:09:09;8.00;;;5.90;;
173;SDS011;75;48.784;9.364;2022-07-09T02:11:35;7.73;;;5.60;;
173;SDS011;75;48.784;9.364;2022-07-09T02:14:02;11.33;;;5.70;;
173;SDS011;75;48.784;9.364;2022-07-09T02:16:29;9.27;;;5.30;;
173;SDS011;75;48.784;9.364;2022-07-09T02:18:55;9.33;;;5.83;;
173;SDS011;75;48.784;9.364;2022-07-09T02:21:21;8.50;;;5.97;;
173;SDS011;75;48.784;9.364;2022-07-09T02:23:47;6.97;;;5.50;;
173;SDS011;75;48.784;9.364;2022-07-09T02:26:14;8.53;;;6.50;;
173;SDS011;75;48.784;9.364;2022-07-09T02:28:40;9.87;;;5.80;;
173;SDS011;75;48.784;9.364;2022-07-09T02:31:06;8.33;;;5.90;;
173;SDS011;75;48.784;9.364;2022-07-09T02:33:32;8.57;;;5.70;;
173;SDS011;75;48.784;9.364;2022-07-09T02:35:59;9.77;;;6.27;;
173;SDS011;75;48.784;9.364;2022-07-09T02:38:25;7.70;;;5.73;;
173;SDS011;75;48.784;9.364;2022-07-09T02:40:51;9.17;;;6.30;;
173;SDS011;75;48.784;9.364;2022-07-09T02:43:17;8.13;;;6.27;;
173;SDS011;75;48.784;9.364;2022-07-09T02:45:43;7.40;;;5.50;;
173;SDS011;75;48.784;9.364;2022-07-09T02:48:09;7.30;;;5.90;;
173;SDS011;75;48.784;9.364;2022-07-09T02:50:35;9.40;;;6.80;;
173;SDS011;75;48.784;9.364;2022-07-09T02:53:01;12.67;;;6.20;;
173;SDS011;75;48.784;9.364;2022-07-09T02:55:27;8.03;;;6.30;;
173;SDS011;75;48.784;9.364;2022-07-09T02:57:53;9.40;;;6.30;;
173;SDS011;75;48.784;9.364;2022-07-09T03:00:19;12.00;;;5.97;;
173;SDS011;75;48.784;9.364;2022-07-09T03:02:45;9.33;;;5.93;;
173;SDS011;75;48.784;9.364;2022-07-09T03:05:11;9.23;;;6.17;;
173;SDS011;75;48.784;9.364;2022-07-09T03:07:37;11.87;;;6.73;;
173;SDS011;75;48.784;9.364;2022-07-09T03:10:03;9.23;;;6.10;;
173;SDS011;75;48.784;9.364;2022-07-09T03:12:29;8.00;;;5.93;;
173;SDS011;75;48.784;9.364;2022-07-09T03:14:56;9.30;;;6.73;;
173;SDS011;75;48.784;9.364;2022-07-09T03:17:22;10.20;;;6.67;;
173;SDS011;75;48.784;9.364;2022-07-09T03:19:48;8.90;;;6.73;;
173;SDS011;75;48.784;9.364;2022-07-09T03:22:14;10.67;;;7.20;;
173;SDS011;75;48.784;9.364;2022-07-09T03:24:40;13.30;;;7.10;;
173;SDS011;75;48.784;9.364;2022-07-09T03:27:06;13.53;;;7.60;;
173;SDS011;75;48.784;9.364;2022-07-09T03:29:32;8.30;;;6.27;;
173;SDS011;75;48.784;9.364;2022-07-09T03:31:58;10.97;;;6.40;;
173;SDS011;75;48.784;9.364;2022-07-09T03:34:24;11.20;;;6.40;;
173;SDS011;75;48.784;9.364;2022-07-09T03:36:50;11.70;;;7.23;;
173;SDS011;75;48.784;9.364;2022-07-09T03:39:16;7.50;;;6.10;;
173;SDS011;75;48.784;9.364;2022-07-09T03:41:42;8.93;;;6.77;;
173;SDS011;75;48.784;9.364;2022-07-09T03:44:08;12.40;;;7.03;;
173;SDS011;75;48.784;9.364;2022-07-09T03:46:34;11.37;;;6.70;;
173;SDS011;75;48.784;9.364;2022-07-09T03:49:00;9.87;;;6.70;;
173;SDS011;75;48.784;9.364;2022-07-09T03:51:26;11.90;;;7.10;;
173;SDS011;75;48.784;9.364;2022-07-09T03:53:52;10.50;;;6.83;;
173;SDS011;75;48.784;9.364;2022-07-09T03:56:18;10.97;;;6.60;;
173;SDS011;75;48.784;9.364;2022-07-09T03:58:45;11.03;;;6.93;;
173;SDS011;75;48.784;9.364;2022-07-09T04:01:11;9.43;;;6.53;;
173;SDS011;75;48.784;9.364;2022-07-09T04:03:37;9.33;;;6.27;;
173;SDS011;75;48.784;9.364;2022-07-09T04:06:04;10.73;;;6.50;;
173;SDS011;75;48.784;9.364;2022-07-09T04:08:30;11.57;;;6.20;;
173;SDS011;75;48.784;9.364;2022-07-09T04:10:56;8.47;;;6.13;;
173;SDS011;75;48.784;9.364;2022-07-09T04:13:22;9.00;;;6.37;;
173;SDS011;75;48.784;9.364;2022-07-09T04:15:48;10.07;;;6.30;;
173;SDS011;75;48.784;9.364;2022-07-09T04:18:14;11.13;;;6.50;;
173;SDS011;75;48.784;9.364;2022-07-09T04:20:43;8.53;;;5.90;;
173;SDS011;75;48.784;9.364;2022-07-09T04:23:09;10.80;;;6.33;;
173;SDS011;75;48.784;9.364;2022-07-09T04:25:35;9.87;;;6.00;;
173;SDS011;75;48.784;9.364;2022-07-09T04:28:01;10.60;;;6.77;;
173;SDS011;75;48.784;9.364;2022-07-09T04:30:27;10.80;;;6.40;;
173;SDS011;75;48.784;9.364;2022-07-09T04:32:53;10.70;;;6.00;;
173;SDS011;75;48.784;9.364;2022-07-09T04:35:19;11.17;;;6.77;;
173;SDS011;75;48.784;9.364;2022-07-09T04:37:45;9.97;;;6.40;;
173;SDS011;75;48.784;9.364;2022-07-09T04:40:11;6.63;;;5.30;;
173;SDS011;75;48.784;9.364;2022-07-09T04:42:37;9.77;;;6.13;;
173;SDS011;75;48.784;9.364;2022-07-09T04:45:04;11.67;;;6.47;;
173;SDS011;75;48.784;9.364;2022-07-09T04:47:30;8.53;;;5.77;;
173;SDS011;75;48.784;9.364;2022-07-09T04:49:56;9.13;;;6.07;;
173;SDS011;75;48.784;9.364;2022-07-09T04:52:22;7.80;;;5.10;;
173;SDS011;75;48.784;9.364;2022-07-09T04:54:51;8.47;;;6.03;;
173;SDS011;75;48.784;9.364;2022-07-09T04:57:17;8.73;;;5.10;;
173;SDS011;75;48.784;9.364;2022-07-09T04:59:43;7.50;;;4.90;;
173;SDS011;75;48.784;9.364;2022-07-09T05:02:09;12.27;;;6.33;;
173;SDS011;75;48.784;9.364;2022-07-09T05:04:35;8.30;;;5.53;;
173;SDS011;75;48.784;9.364;2022-07-09T05:07:02;10.47;;;6.07;;
173;SDS011;75;48.784;9.364;2022-07-09T05:09:28;8.87;;;6.60;;
173;SDS011;75;48.784;9.364;2022-07-09T05:11:54;10.70;;;6.47;;
173;SDS011;75;48.784;9.364;2022-07-09T05:14:20;9.53;;;6.27;;
173;SDS011;75;48.784;9.364;2022-07-09T05:16:46;9.10;;;6.20;;
173;SDS011;75;48.784;9.364;2022-07-09T05:19:13;7.50;;;5.70;;
173;SDS011;75;48.784;9.364;2022-07-09T05:21:40;8.90;;;5.90;;
173;SDS011;75;48.784;9.364;2022-07-09T05:24:06;8.70;;;5.30;;
173;SDS011;75;48.784;9.364;2022-07-09T05:26:33;10.10;;;5.80;;
173;SDS011;75;48.784;9.364;2022-07-09T05:28:59;9.90;;;6.43;;
173;SDS011;75;48.784;9.364;2022-07-09T05:31:25;11.00;;;6.03;;
173;SDS011;75;48.784;9.364;2022-07-09T05:33:51;8.60;;;5.80;;
173;SDS011;75;48.784;9.364;2022-07-09T05:36:17;10.27;;;5.37;;
173;SDS011;75;48.784;9.364;2022-07-09T05:38:46;8.60;;;5.30;;
173;SDS011;75;48.784;9.364;2022-07-09T05:41:13;12.10;;;5.40;;
173;SDS011;75;48.784;9.364;2022-07-09T05:43:40;10.93;;;5.40;;
173;SDS011;75;48.784;9.364;2022-07-09T05:46:06;10.43;;;5.20;;
173;SDS011;75;48.784;9.364;2022-07-09T05:48:32;7.00;;;5.20;;
173;SDS011;75;48.784;9.364;2022-07-09T05:50:58;9.23;;;5.50;;
173;SDS011;75;48.784;9.364;2022-07-09T05:53:24;7.43;;;5.00;;
173;SDS011;75;48.784;9.364;2022-07-09T05:55:50;9.73;;;5.20;;
173;SDS011;75;48.784;9.364;2022-07-09T05:58:16;9.50;;;4.73;;
173;SDS011;75;48.784;9.364;2022-07-09T06:00:42;7.47;;;4.80;;
173;SDS011;75;48.784;9.364;2022-07-09T06:03:08;6.57;;;4.97;;
173;SDS011;75;48.784;9.364;2022-07-09T06:05:34;10.30;;;5.23;;
173;SDS011;75;48.784;9.364;2022-07-09T06:08:00;9.13;;;4.73;;
173;SDS011;75;48.784;9.364;2022-07-09T06:10:26;10.07;;;5.50;;
173;SDS011;75;48.784;9.364;2022-07-09T06:12:52;10.23;;;5.20;;
173;SDS011;75;48.784;9.364;2022-07-09T06:15:18;8.37;;;4.80;;
173;SDS011;75;48.784;9.364;2022-07-09T06:17:44;8.97;;;5.03;;
173;SDS011;75;48.784;9.364;2022-07-09T06:20:10;7.10;;;5.00;;
173;SDS011;75;48.784;9.364;2022-07-09T06:22:36;6.73;;;4.60;;
173;SDS011;75;48.784;9.364;2022-07-09T06:25:04;7.90;;;4.77;;
173;SDS011;75;48.784;9.364;2022-07-09T06:27:30;7.03;;;4.20;;
173;SDS011;75;48.784;9.364;2022-07-09T06:29:56;7.67;;;5.03;;
173;SDS011;75;48.784;9.364;2022-07-09T06:32:22;8.27;;;4.70;;
173;SDS011;75;48.784;9.364;2022-07-09T06:34:48;8.43;;;4.30;;
173;SDS011;75;48.784;9.364;2022-07-09T06:37:14;7.00;;;4.40;;
173;SDS011;75;48.784;9.364;2022-07-09T06:39:40;11.30;;;4.70;;
173;SDS011;75;48.784;9.364;2022-07-09T06:42:09;7.83;;;4.77;;
173;SDS011;75;48.784;9.364;2022-07-09T06:44:35;5.67;;;4.23;;
173;SDS011;75;48.784;9.364;2022-07-09T06:47:02;9.30;;;4.90;;
173;SDS011;75;48.784;9.364;2022-07-09T06:49:28;5.93;;;4.47;;
173;SDS011;75;48.784;9.364;2022-07-09T06:51:54;6.83;;;4.47;;
173;SDS011;75;48.784;9.364;2022-07-09T06:54:20;7.23;;;4.57;;
173;SDS011;75;48.784;9.364;2022-07-09T06:56:46;7.57;;;4.33;;
173;SDS011;75;48.784;9.364;2022-07-09T06:59:13;7.97;;;4.63;;
173;SDS011;75;48.784;9.364;2022-07-09T07:01:39;7.73;;;4.23;;
173;SDS011;75;48.784;9.364;2022-07-09T07:04:05;6.10;;;4.80;;
173;SDS011;75;48.784;9.364;2022-07-09T07:06:32;5.83;;;4.30;;
173;SDS011;75;48.784;9.364;2022-07-09T07:08:58;10.03;;;4.53;;
173;SDS011;75;48.784;9.364;2022-07-09T07:11:24;7.13;;;4.40;;
173;SDS011;75;48.784;9.364;2022-07-09T07:13:50;7.63;;;4.70;;
173;SDS011;75;48.784;9.364;2022-07-09T07:16:16;6.77;;;4.53;;
173;SDS011;75;48.784;9.364;2022-07-09T07:18:42;6.27;;;4.50;;
173;SDS011;75;48.784;9.364;2022-07-09T07:21:08;6.70;;;4.53;;
173;SDS011;75;48.784;9.364;2022-07-09T07:23:34;10.90;;;5.00;;
173;SDS011;75;48.784;9.364;2022-07-09T07:26:00;7.60;;;4.90;;
173;SDS011;75;48.784;9.364;2022-07-09T07:28:26;7.77;;;4.80;;
173;SDS011;75;48.784;9.364;2022-07-09T07:30:52;10.50;;;4.80;;
173;SDS011;75;48.784;9.364;2022-07-09T07:33:19;6.93;;;4.60;;
173;SDS011;75;48.784;9.364;2022-07-09T07:35:45;7.80;;;4.40;;
173;SDS011;75;48.784;9.364;2022-07-09T07:38:11;7.70;;;4.30;;
173;SDS011;75;48.784;9.364;2022-07-09T07:40:37;6.77;;;4.47;;
173;SDS011;75;48.784;9.364;2022-07-09T07:43:03;8.90;;;4.90;;
173;SDS011;75;48.784;9.364;2022-07-09T07:45:29;6.33;;;4.30;;
173;SDS011;75;48.784;9.364;2022-07-09T07:47:56;6.80;;;4.50;;
173;SDS011;75;48.784;9.364;2022-07-09T07:50:22;6.07;;;4.00;;
173;SDS011;75;48.784;9.364;2022-07-09T07:52:48;7.00;;;4.40;;
173;SDS011;75;48.784;9.364;2022-07-09T07:55:14;6.50;;;4.90;;
173;SDS011;75;48.784;9.364;2022-07-09T07:57:41;5.27;;;4.13;;
173;SDS011;75;48.784;9.364;2022-07-09T08:00:07;7.90;;;4.30;;
173;SDS011;75;48.784;9.364;2022-07-09T08:02:33;10.23;;;4.70;;
173;SDS011;75;48.784;9.364;2022-07-09T08:05:00;6.27;;;4.17;;
173;SDS011;75;48.784;9.364;2022-07-09T08:07:26;5.90;;;4.30;;
173;SDS011;75;48.784;9.364;2022-07-09T08:09:52;8.23;;;4.77;;
173;SDS011;75;48.784;9.364;2022-07-09T08:12:18;7.77;;;4.90;;
173;SDS011;75;48.784;9.364;2022-07-09T08:14:44;8.80;;;4.33;;
173;SDS011;75;48.784;9.364;2022-07-09T08:17:10;7.97;;;4.60;;
173;SDS011;75;48.784;9.364;2022-07-09T08:19:36;6.73;;;4.20;;
173;SDS011;75;48.784;9.364;2022-07-09T08:22:02;5.40;;;4.53;;
173;SDS011;75;48.784;9.364;2022-07-09T08:24:28;6.33;;;4.40;;
173;SDS011;75;48.784;9.364;2022-07-09T08:26:54;9.87;;;4.63;;
173;SDS011;75;48.784;9.364;2022-07-09T08:29:21;5.00;;;4.00;;
173;SDS011;75;48.784;9.364;2022-07-09T08:31:48;6.10;;;3.87;;
173;SDS011;75;48.784;9.364;2022-07-09T08:34:14;7.40;;;3.80;;
173;SDS011;75;48.784;9.364;2022-07-09T08:36:40;6.60;;;3.53;;
173;SDS011;75;48.784;9.364;2022-07-09T08:39:06;4.77;;;3.10;;
173;SDS011;75;48.784;9.364;2022-07-09T08:41:32;4.87;;;3.37;;
173;SDS011;75;48.784;9.364;2022-07-09T08:43:58;7.30;;;3.50;;
173;SDS011;75;48.784;9.364;2022-07-09T08:46:26;5.43;;;3.30;;
173;SDS011;75;48.784;9.364;2022-07-09T08:48:52;5.10;;;2.90;;
173;SDS011;75;48.784;9.364;2022-07-09T08:51:18;4.17;;;2.67;;
173;SDS011;75;48.784;9.364;2022-07-09T08:53:45;6.27;;;3.50;;
173;SDS011;75;48.784;9.364;2022-07-09T08:56:11;4.20;;;3.00;;
173;SDS011;75;48.784;9.364;2022-07-09T08:58:38;5.37;;;3.60;;
173;SDS011;75;48.784;9.364;2022-07-09T09:01:04;5.03;;;3.50;;
173;SDS011;75;48.784;9.364;2022-07-09T09:03:31;6.70;;;3.37;;
173;SDS011;75;48.784;9.364;2022-07-09T09:06:07;7.97;;;3.87;;
173;SDS011;75;48.784;9.364;2022-07-09T09:08:41;6.73;;;3.40;;
173;SDS011;75;48.784;9.364;2022-07-09T09:11:14;9.70;;;3.53;;
173;SDS011;75;48.784;9.364;2022-07-09T09:13:44;5.10;;;3.33;;
173;SDS011;75;48.784;9.364;2022-07-09T09:16:10;4.20;;;3.20;;
173;SDS011;75;48.784;9.364;2022-07-09T09:18:41;4.63;;;3.17;;
173;SDS011;75;48.784;9.364;2022-07-09T09:21:08;6.20;;;3.33;;
173;SDS011;75;48.784;9.364;2022-07-09T09:23:41;5.87;;;3.30;;
173;SDS011;75;48.784;9.364;2022-07-09T09:26:14;4.20;;;2.70;;
173;SDS011;75;48.784;9.364;2022-07-09T09:28:47;4.73;;;3.00;;
173;SDS011;75;48.784;9.364;2022-07-09T09:31:29;4.93;;;2.87;;
173;SDS011;75;48.784;9.364;2022-07-09T09:41:38;4.27;;;2.43;;
173;SDS011;75;48.784;9.364;2022-07-09T09:44:09;3.50;;;2.40;;
173;SDS011;75;48.784;9.364;2022-07-09T09:46:35;3.43;;;2.73;;
173;SDS011;75;48.784;9.364;2022-07-09T09:49:03;3.70;;;2.57;;
173;SDS011;75;48.784;9.364;2022-07-09T09:51:33;4.10;;;2.87;;
173;SDS011;75;48.784;9.364;2022-07-09T09:53:59;3.37;;;2.70;;
173;SDS011;75;48.784;9.364;2022-07-09T09:56:26;7.17;;;3.20;;
173;SDS011;75;48.784;9.364;2022-07-09T09:58:53;5.17;;;2.90;;
173;SDS011;75;48.784;9.364;2022-07-09T10:01:20;6.77;;;3.40;;
173;SDS011;75;48.784;9.364;2022-07-09T10:03:46;4.73;;;2.97;;
173;SDS011;75;48.784;9.364;2022-07-09T10:06:12;4.43;;;3.37;;
173;SDS011;75;48.784;9.364;2022-07-09T10:08:38;4.10;;;2.90;;
173;SDS011;75;48.784;9.364;2022-07-09T10:11:04;5.63;;;3.17;;
173;SDS011;75;48.784;9.364;2022-07-09T10:13:31;6.43;;;2.93;;
173;SDS011;75;48.784;9.364;2022-07-09T10:15:57;4.90;;;2.97;;
173;SDS011;75;48.784;9.364;2022-07-09T10:18:24;6.23;;;3.07;;
173;SDS011;75;48.784;9.364;2022-07-09T10:20:54;7.70;;;3.40;;
173;SDS011;75;48.784;9.364;2022-07-09T10:23:21;3.70;;;3.10;;
173;SDS011;75;48.784;9.364;2022-07-09T10:25:49;5.27;;;3.20;;
173;SDS011;75;48.784;9.364;2022-07-09T10:28:21;4.90;;;3.40;;
173;SDS011;75;48.784;9.364;2022-07-09T10:30:47;4.13;;;3.00;;
173;SDS011;75;48.784;9.364;2022-07-09T10:35:46;4.00;;;2.90;;
173;SDS011;75;48.784;9.364;2022-07-09T10:38:13;3.77;;;2.70;;
173;SDS011;75;48.784;9.364;2022-07-09T10:40:40;3.53;;;2.63;;
173;SDS011;75;48.784;9.364;2022-07-09T10:43:07;4.13;;;2.70;;
173;SDS011;75;48.784;9.364;2022-07-09T10:48:00;6.50;;;3.20;;
173;SDS011;75;48.784;9.364;2022-07-09T10:50:28;3.90;;;2.97;;
173;SDS011;75;48.784;9.364;2022-07-09T10:52:54;4.13;;;2.60;;
173;SDS011;75;48.784;9.364;2022-07-09T10:55:21;3.43;;;2.80;;
173;SDS011;75;48.784;9.364;2022-07-09T10:57:48;4.13;;;2.90;;
173;SDS011;75;48.784;9.364;2022-07-09T11:00:15;7.77;;;3.20;;
173;SDS011;75;48.784;9.364;2022-07-09T11:02:51;4.07;;;2.73;;
173;SDS011;75;48.784;9.364;2022-07-09T11:05:17;3.50;;;2.73;;
173;SDS011;75;48.784;9.364;2022-07-09T11:07:53;6.33;;;3.10;;
173;SDS011;75;48.784;9.364;2022-07-09T11:10:19;4.60;;;3.10;;
173;SDS011;75;48.784;9.364;2022-07-09T11:12:48;4.63;;;3.27;;
173;SDS011;75;48.784;9.364;2022-07-09T11:15:18;5.33;;;3.00;;
173;SDS011;75;48.784;9.364;2022-07-09T11:17:53;7.83;;;5.00;;
173;SDS011;75;48.784;9.364;2022-07-09T11:20:19;7.97;;;5.47;;
173;SDS011;75;48.784;9.364;2022-07-09T11:22:48;14.50;;;7.07;;
173;SDS011;75;48.784;9.364;2022-07-09T11:25:15;5.63;;;3.73;;
173;SDS011;75;48.784;9.364;2022-07-09T11:27:41;5.70;;;4.13;;
173;SDS011;75;48.784;9.364;2022-07-09T11:30:11;5.80;;;3.50;;
173;SDS011;75;48.784;9.364;2022-07-09T11:32:37;6.37;;;3.80;;
173;SDS011;75;48.784;9.364;2022-07-09T11:35:04;5.00;;;3.40;;
173;SDS011;75;48.784;9.364;2022-07-09T11:37:30;6.10;;;3.60;;
173;SDS011;75;48.784;9.364;2022-07-09T11:39:56;4.10;;;3.30;;
173;SDS011;75;48.784;9.364;2022-07-09T11:42:22;5.30;;;3.10;;
173;SDS011;75;48.784;9.364;2022-07-09T11:44:59;6.17;;;3.20;;
173;SDS011;75;48.784;9.364;2022-07-09T11:47:43;6.87;;;3.10;;
173;SDS011;75;48.784;9.364;2022-07-09T11:50:17;9.23;;;3.40;;
173;SDS011;75;48.784;9.364;2022-07-09T11:52:49;5.23;;;3.30;;
173;SDS011;75;48.784;9.364;2022-07-09T11:55:17;4.70;;;3.10;;
173;SDS011;75;48.784;9.364;2022-07-09T11:58:18;4.80;;;3.30;;
173;SDS011;75;48.784;9.364;2022-07-09T12:00:39;6.97;;;3.40;;
173;SDS011;75;48.784;9.364;2022-07-09T12:03:05;5.70;;;3.27;;
173;SDS011;75;48.784;9.364;2022-07-09T12:05:35;4.73;;;3.03;;
173;SDS011;75;48.784;9.364;2022-07-09T12:08:02;5.83;;;3.40;;
173;SDS011;75;48.784;9.364;2022-07-09T12:10:34;5.70;;;3.17;;
173;SDS011;75;48.784;9.364;2022-07-09T12:13:00;4.13;;;3.00;;
173;SDS011;75;48.784;9.364;2022-07-09T12:15:26;3.47;;;2.90;;
173;SDS011;75;48.784;9.364;2022-07-09T12:17:53;4.03;;;2.70;;
173;SDS011;75;48.784;9.364;2022-07-09T12:20:23;5.70;;;2.53;;
173;SDS011;75;48.784;9.364;2022-07-09T12:22:49;5.17;;;2.83;;
173;SDS011;75;48.784;9.364;2022-07-09T12:25:16;4.87;;;3.00;;
173;SDS011;75;48.784;9.364;2022-07-09T12:27:42;3.33;;;2.70;;
173;SDS011;75;48.784;9.364;2022-07-09T12:30:08;5.87;;;3.40;;
173;SDS011;75;48.784;9.364;2022-07-09T12:32:34;5.00;;;2.97;;
173;SDS011;75;48.784;9.364;2022-07-09T12:35:01;5.40;;;3.20;;
173;SDS011;75;48.784;9.364;2022-07-09T12:37:27;4.40;;;3.00;;
173;SDS011;75;48.784;9.364;2022-07-09T12:39:53;4.40;;;3.20;;
173;SDS011;75;48.784;9.364;2022-07-09T12:42:19;5.83;;;3.37;;
173;SDS011;75;48.784;9.364;2022-07-09T12:44:46;4.83;;;3.13;;
173;SDS011;75;48.784;9.364;2022-07-09T12:47:12;4.07;;;2.87;;
173;SDS011;75;48.784;9.364;2022-07-09T12:49:38;4.30;;;2.90;;
173;SDS011;75;48.784;9.364;2022-07-09T12:52:04;6.30;;;3.27;;
173;SDS011;75;48.784;9.364;2022-07-09T12:54:30;4.43;;;2.90;;
173;SDS011;75;48.784;9.364;2022-07-09T12:56:56;5.67;;;3.43;;
173;SDS011;75;48.784;9.364;2022-07-09T12:59:22;3.90;;;3.03;;
173;SDS011;75;48.784;9.364;2022-07-09T13:01:50;6.40;;;2.90;;
173;SDS011;75;48.784;9.364;2022-07-09T13:04:16;4.00;;;3.03;;
173;SDS011;75;48.784;9.364;2022-07-09T13:06:42;5.20;;;2.90;;
173;SDS011;75;48.784;9.364;2022-07-09T13:09:09;6.07;;;2.90;;
173;SDS011;75;48.784;9.364;2022-07-09T13:11:35;3.97;;;2.77;;
173;SDS011;75;48.784;9.364;2022-07-09T13:14:02;6.10;;;2.97;;
173;SDS011;75;48.784;9.364;2022-07-09T13:16:28;4.20;;;2.80;;
173;SDS011;75;48.784;9.364;2022-07-09T13:18:54;5.03;;;3.07;;
173;SDS011;75;48.784;9.364;2022-07-09T13:21:20;5.73;;;3.00;;
173;SDS011;75;48.784;9.364;2022-07-09T13:23:47;3.70;;;2.80;;
173;SDS011;75;48.784;9.364;2022-07-09T13:26:14;5.93;;;2.83;;
173;SDS011;75;48.784;9.364;2022-07-09T13:28:40;4.70;;;2.67;;
173;SDS011;75;48.784;9.364;2022-07-09T13:31:06;5.80;;;2.77;;
173;SDS011;75;48.784;9.364;2022-07-09T13:33:33;3.90;;;2.80;;
173;SDS011;75;48.784;9.364;2022-07-09T13:36:03;4.10;;;2.53;;
173;SDS011;75;48.784;9.364;2022-07-09T13:38:30;5.00;;;3.17;;
173;SDS011;75;48.784;9.364;2022-07-09T13:40:56;3.40;;;2.60;;
173;SDS011;75;48.784;9.364;2022-07-09T13:43:22;5.43;;;2.50;;
173;SDS011;75;48.784;9.364;2022-07-09T13:45:50;5.50;;;3.03;;
173;SDS011;75;48.784;9.364;2022-07-09T13:48:17;4.80;;;2.90;;
173;SDS011;75;48.784;9.364;2022-07-09T13:50:43;3.40;;;2.50;;
173;SDS011;75;48.784;9.364;2022-07-09T13:53:09;3.97;;;2.70;;
173;SDS011;75;48.784;9.364;2022-07-09T13:55:35;4.37;;;2.63;;
173;SDS011;75;48.784;9.364;2022-07-09T13:58:01;4.20;;;2.63;;
173;SDS011;75;48.784;9.364;2022-07-09T14:00:27;3.57;;;2.50;;
173;SDS011;75;48.784;9.364;2022-07-09T14:02:53;4.40;;;2.80;;
173;SDS011;75;48.784;9.364;2022-07-09T14:05:19;4.03;;;2.60;;
173;SDS011;75;48.784;9.364;2022-07-09T14:07:45;4.33;;;2.60;;
173;SDS011;75;48.784;9.364;2022-07-09T14:10:11;3.80;;;2.50;;
173;SDS011;75;48.784;9.364;2022-07-09T14:12:37;4.70;;;2.60;;
173;SDS011;75;48.784;9.364;2022-07-09T14:15:03;4.43;;;2.60;;
173;SDS011;75;48.784;9.364;2022-07-09T14:17:30;4.40;;;2.60;;
173;SDS011;75;48.784;9.364;2022-07-09T14:19:56;4.37;;;2.73;;
173;SDS011;75;48.784;9.364;2022-07-09T14:22:24;3.40;;;2.80;;
173;SDS011;75;48.784;9.364;2022-07-09T14:24:50;3.80;;;2.70;;
173;SDS011;75;48.784;9.364;2022-07-09T14:27:16;3.30;;;2.70;;
173;SDS011;75;48.784;9.364;2022-07-09T14:29:42;3.50;;;2.80;;
173;SDS011;75;48.784;9.364;2022-07-09T14:32:09;6.33;;;4.73;;
173;SDS011;75;48.784;9.364;2022-07-09T14:34:35;4.80;;;2.90;;
173;SDS011;75;48.784;9.364;2022-07-09T14:37:01;3.37;;;2.80;;
173;SDS011;75;48.784;9.364;2022-07-09T14:39:27;3.43;;;2.80;;
173;SDS011;75;48.784;9.364;2022-07-09T14:41:53;3.73;;;2.90;;
173;SDS011;75;48.784;9.364;2022-07-09T14:44:19;4.33;;;3.20;;
173;SDS011;75;48.784;9.364;2022-07-09T14:46:45;3.83;;;2.90;;
173;SDS011;75;48.784;9.364;2022-07-09T14:49:11;5.00;;;2.87;;
173;SDS011;75;48.784;9.364;2022-07-09T14:51:38;4.87;;;3.00;;
173;SDS011;75;48.784;9.364;2022-07-09T14:54:04;4.77;;;3.10;;
173;SDS011;75;48.784;9.364;2022-07-09T14:56:30;3.60;;;2.90;;
173;SDS011;75;48.784;9.364;2022-07-09T14:58:56;5.90;;;3.17;;
173;SDS011;75;48.784;9.364;2022-07-09T15:01:22;5.30;;;3.10;;
173;SDS011;75;48.784;9.364;2022-07-09T15:03:48;4.10;;;2.90;;
173;SDS011;75;48.784;9.364;2022-07-09T15:06:14;4.30;;;3.10;;
173;SDS011;75;48.784;9.364;2022-07-09T15:08:42;4.63;;;3.00;;
173;SDS011;75;48.784;9.364;2022-07-09T15:11:09;4.50;;;3.30;;
173;SDS011;75;48.784;9.364;2022-07-09T15:13:35;5.13;;;3.07;;
173;SDS011;75;48.784;9.364;2022-07-09T15:16:02;4.87;;;3.00;;
173;SDS011;75;48.784;9.364;2022-07-09T15:18:28;6.83;;;3.60;;
173;SDS011;75;48.784;9.364;2022-07-09T15:20:54;4.50;;;2.80;;
173;SDS011;75;48.784;9.364;2022-07-09T15:23:21;4.07;;;3.30;;
173;SDS011;75;48.784;9.364;2022-07-09T15:25:47;4.30;;;3.23;;
173;SDS011;75;48.784;9.364;2022-07-09T15:28:14;4.90;;;3.63;;
173;SDS011;75;48.784;9.364;2022-07-09T15:30:40;5.87;;;3.30;;
173;SDS011;75;48.784;9.364;2022-07-09T15:33:08;6.47;;;3.57;;
173;SDS011;75;48.784;9.364;2022-07-09T15:35:36;5.77;;;3.63;;
173;SDS011;75;48.784;9.364;2022-07-09T15:38:02;4.33;;;3.50;;
173;SDS011;75;48.784;9.364;2022-07-09T15:40:29;4.00;;;3.50;;
173;SDS011;75;48.784;9.364;2022-07-09T15:42:55;4.70;;;3.80;;
173;SDS011;75;48.784;9.364;2022-07-09T15:45:21;4.60;;;3.70;;
173;SDS011;75;48.784;9.364;2022-07-09T15:47:47;8.23;;;3.53;;
173;SDS011;75;48.784;9.364;2022-07-09T15:50:14;6.23;;;3.70;;
173;SDS011;75;48.784;9.364;2022-07-09T15:52:40;5.57;;;3.83;;
173;SDS011;75;48.784;9.364;2022-07-09T15:55:10;6.70;;;4.43;;
173;SDS011;75;48.784;9.364;2022-07-09T15:57:36;5.63;;;3.63;;
173;SDS011;75;48.784;9.364;2022-07-09T16:00:07;6.23;;;3.80;;
173;SDS011;75;48.784;9.364;2022-07-09T16:02:34;7.90;;;3.77;;
173;SDS011;75;48.784;9.364;2022-07-09T16:05:00;6.70;;;4.20;;
173;SDS011;75;48.784;9.364;2022-07-09T16:07:27;5.93;;;3.80;;